sensor_id;sensor_type;location;lat;lon;timestamp;temperature;humidity
46336;DHT22;31365;48.858;8.530;2024-02-14T00:00:15;4.90;99.90
46336;DHT22;31365;48.858;8.530;2024-02-14T00:02:47;5.00;99.90
46336;DHT22;31365;48.858;8.530;2024-02-14T00:05:17;5.00;99.90
46336;DHT22;31365;48.858;8.530;2024-02-14T00:07:45;5.00;99.90
46336;DHT22;31365;48.858;8.530;2024-02-14T00:10:14;5.10;99.90
46336;DHT22;31365;48.858;8.530;2024-02-14T00:12:42;5.10;99.90
46336;DHT22;31365;48.858;8.530;2024-02-14T00:15:10;5.10;99.90
46336;DHT22;31365;48.858;8.530;2024-02-14T00:17:40;5.20;99.90
46336;DHT22;31365;48.858;8.530;2024-02-14T00:20:10;5.20;99.90
46336;DHT22;31365;48.858;8.530;2024-02-14T00:22:39;5.20;99.90
46336;DHT22;31365;48.858;8.530;2024-02-14T00:25:08;5.40;99.90
46336;DHT22;31365;48.858;8.530;2024-02-14T00:27:38;5.40;99.90
46336;DHT22;31365;48.858;8.530;2024-02-14T00:30:07;5.50;99.90
46336;DHT22;31365;48.858;8.530;2024-02-14T00:32:37;5.50;99.90
46336;DHT22;31365;48.858;8.530;2024-02-14T00:35:09;5.60;99.90
46336;DHT22;31365;48.858;8.530;2024-02-14T00:37:37;5.70;99.90
46336;DHT22;31365;48.858;8.530;2024-02-14T00:40:07;5.80;99.90
46336;DHT22;31365;48.858;8.530;2024-02-14T00:42:37;6.00;99.90
46336;DHT22;31365;48.858;8.530;2024-02-14T00:45:07;6.20;99.90
46336;DHT22;31365;48.858;8.530;2024-02-14T00:47:37;6.40;99.90
46336;DHT22;31365;48.858;8.530;2024-02-14T00:50:08;6.60;99.90
46336;DHT22;31365;48.858;8.530;2024-02-14T00:52:37;6.90;99.90
46336;DHT22;31365;48.858;8.530;2024-02-14T00:55:07;7.00;99.90
46336;DHT22;31365;48.858;8.530;2024-02-14T00:57:36;7.10;99.90
46336;DHT22;31365;48.858;8.530;2024-02-14T01:00:06;7.20;99.90
46336;DHT22;31365;48.858;8.530;2024-02-14T01:02:36;7.30;99.90
46336;DHT22;31365;48.858;8.530;2024-02-14T01:05:05;7.30;99.90
46336;DHT22;31365;48.858;8.530;2024-02-14T01:07:37;7.40;99.90
46336;DHT22;31365;48.858;8.530;2024-02-14T01:10:05;7.40;99.90
46336;DHT22;31365;48.858;8.530;2024-02-14T01:12:34;7.50;99.90
46336;DHT22;31365;48.858;8.530;2024-02-14T01:15:03;7.50;99.90
46336;DHT22;31365;48.858;8.530;2024-02-14T01:17:32;7.50;99.90
46336;DHT22;31365;48.858;8.530;2024-02-14T01:20:08;7.50;99.90
46336;DHT22;31365;48.858;8.530;2024-02-14T01:22:37;7.50;99.90
46336;DHT22;31365;48.858;8.530;2024-02-14T01:25:06;7.40;99.90
46336;DHT22;31365;48.858;8.530;2024-02-14T01:27:39;7.40;99.90
46336;DHT22;31365;48.858;8.530;2024-02-14T01:30:10;7.40;99.90
46336;DHT22;31365;48.858;8.530;2024-02-14T01:32:39;7.40;99.90
46336;DHT22;31365;48.858;8.530;2024-02-14T01:35:09;7.40;99.90
46336;DHT22;31365;48.858;8.530;2024-02-14T01:37:38;7.40;99.90
46336;DHT22;31365;48.858;8.530;2024-02-14T01:40:08;7.30;99.90
46336;DHT22;31365;48.858;8.530;2024-02-14T01:42:37;7.20;99.90
46336;DHT22;31365;48.858;8.530;2024-02-14T01:45:07;7.10;99.90
46336;DHT22;31365;48.858;8.530;2024-02-14T01:47:36;7.00;99.90
46336;DHT22;31365;48.858;8.530;2024-02-14T01:50:10;6.90;99.90
46336;DHT22;31365;48.858;8.530;2024-02-14T01:52:39;6.70;99.90
46336;DHT22;31365;48.858;8.530;2024-02-14T01:55:12;6.50;99.90
46336;DHT22;31365;48.858;8.530;2024-02-14T01:57:41;6.40;99.90
46336;DHT22;31365;48.858;8.530;2024-02-14T02:00:11;6.30;99.90
46336;DHT22;31365;48.858;8.530;2024-02-14T02:02:45;6.30;99.90
46336;DHT22;31365;48.858;8.530;2024-02-14T02:05:19;6.20;99.90
46336;DHT22;31365;48.858;8.530;2024-02-14T02:07:48;6.20;99.90
46336;DHT22;31365;48.858;8.530;2024-02-14T02:10:17;6.20;99.90
46336;DHT22;31365;48.858;8.530;2024-02-14T02:12:48;6.20;99.90
46336;DHT22;31365;48.858;8.530;2024-02-14T02:15:17;6.20;99.90
46336;DHT22;31365;48.858;8.530;2024-02-14T02:17:46;6.30;99.90
46336;DHT22;31365;48.858;8.530;2024-02-14T02:20:21;6.40;99.90
46336;DHT22;31365;48.858;8.530;2024-02-14T02:22:51;6.60;99.90
46336;DHT22;31365;48.858;8.530;2024-02-14T02:25:19;6.70;99.90
46336;DHT22;31365;48.858;8.530;2024-02-14T02:27:52;6.90;99.90
46336;DHT22;31365;48.858;8.530;2024-02-14T02:30:25;7.00;99.90
46336;DHT22;31365;48.858;8.530;2024-02-14T02:32:54;7.00;99.90
46336;DHT22;31365;48.858;8.530;2024-02-14T02:35:23;7.00;99.90
46336;DHT22;31365;48.858;8.530;2024-02-14T02:37:54;7.00;99.90
46336;DHT22;31365;48.858;8.530;2024-02-14T02:40:23;7.00;99.90
46336;DHT22;31365;48.858;8.530;2024-02-14T02:42:51;7.00;99.90
46336;DHT22;31365;48.858;8.530;2024-02-14T02:45:20;6.90;99.90
46336;DHT22;31365;48.858;8.530;2024-02-14T02:47:49;6.90;99.90
46336;DHT22;31365;48.858;8.530;2024-02-14T02:50:19;6.80;99.90
46336;DHT22;31365;48.858;8.530;2024-02-14T02:52:48;6.80;99.90
46336;DHT22;31365;48.858;8.530;2024-02-14T02:55:19;6.70;99.90
46336;DHT22;31365;48.858;8.530;2024-02-14T02:57:48;6.60;99.90
46336;DHT22;31365;48.858;8.530;2024-02-14T03:00:17;6.50;99.90
46336;DHT22;31365;48.858;8.530;2024-02-14T03:02:48;6.40;99.90
46336;DHT22;31365;48.858;8.530;2024-02-14T03:05:17;6.40;99.90
46336;DHT22;31365;48.858;8.530;2024-02-14T03:07:47;6.20;99.90
46336;DHT22;31365;48.858;8.530;2024-02-14T03:10:18;6.20;99.90
46336;DHT22;31365;48.858;8.530;2024-02-14T03:12:48;6.20;99.90
46336;DHT22;31365;48.858;8.530;2024-02-14T03:15:18;6.30;99.90
46336;DHT22;31365;48.858;8.530;2024-02-14T03:17:46;6.50;99.90
46336;DHT22;31365;48.858;8.530;2024-02-14T03:20:15;6.70;99.90
46336;DHT22;31365;48.858;8.530;2024-02-14T03:22:45;6.80;99.90
46336;DHT22;31365;48.858;8.530;2024-02-14T03:25:16;6.90;99.90
46336;DHT22;31365;48.858;8.530;2024-02-14T03:27:47;7.00;99.90
46336;DHT22;31365;48.858;8.530;2024-02-14T03:30:20;7.00;99.90
46336;DHT22;31365;48.858;8.530;2024-02-14T03:32:50;7.10;99.90
46336;DHT22;31365;48.858;8.530;2024-02-14T03:35:20;7.10;99.90
46336;DHT22;31365;48.858;8.530;2024-02-14T03:37:49;7.10;99.90
46336;DHT22;31365;48.858;8.530;2024-02-14T03:40:21;7.10;99.90
46336;DHT22;31365;48.858;8.530;2024-02-14T03:42:50;7.10;99.90
46336;DHT22;31365;48.858;8.530;2024-02-14T03:45:20;7.20;99.90
46336;DHT22;31365;48.858;8.530;2024-02-14T03:47:49;7.10;99.90
46336;DHT22;31365;48.858;8.530;2024-02-14T03:50:18;7.20;99.90
46336;DHT22;31365;48.858;8.530;2024-02-14T03:52:47;7.20;99.90
46336;DHT22;31365;48.858;8.530;2024-02-14T03:55:15;7.40;99.90
46336;DHT22;31365;48.858;8.530;2024-02-14T03:57:47;7.40;99.90
46336;DHT22;31365;48.858;8.530;2024-02-14T04:00:18;7.50;99.90
46336;DHT22;31365;48.858;8.530;2024-02-14T04:02:49;7.60;99.90
46336;DHT22;31365;48.858;8.530;2024-02-14T04:05:19;7.60;99.90
46336;DHT22;31365;48.858;8.530;2024-02-14T04:07:48;7.60;99.90
46336;DHT22;31365;48.858;8.530;2024-02-14T04:10:19;7.70;99.90
46336;DHT22;31365;48.858;8.530;2024-02-14T04:12:49;7.70;99.90
46336;DHT22;31365;48.858;8.530;2024-02-14T04:15:18;7.70;99.90
46336;DHT22;31365;48.858;8.530;2024-02-14T04:17:46;7.70;99.90
46336;DHT22;31365;48.858;8.530;2024-02-14T04:20:15;7.60;99.90
46336;DHT22;31365;48.858;8.530;2024-02-14T04:22:44;7.60;99.90
46336;DHT22;31365;48.858;8.530;2024-02-14T04:25:12;7.70;99.90
46336;DHT22;31365;48.858;8.530;2024-02-14T04:27:41;7.70;99.90
46336;DHT22;31365;48.858;8.530;2024-02-14T04:30:12;7.70;99.90
46336;DHT22;31365;48.858;8.530;2024-02-14T04:32:41;7.70;99.90
46336;DHT22;31365;48.858;8.530;2024-02-14T04:35:10;7.70;99.90
46336;DHT22;31365;48.858;8.530;2024-02-14T04:37:40;7.80;99.90
46336;DHT22;31365;48.858;8.530;2024-02-14T04:40:11;8.00;99.90
46336;DHT22;31365;48.858;8.530;2024-02-14T04:42:40;8.00;99.90
46336;DHT22;31365;48.858;8.530;2024-02-14T04:45:10;8.10;99.90
46336;DHT22;31365;48.858;8.530;2024-02-14T04:47:39;8.20;99.90
46336;DHT22;31365;48.858;8.530;2024-02-14T04:50:08;8.20;99.90
46336;DHT22;31365;48.858;8.530;2024-02-14T04:52:37;8.20;99.90
46336;DHT22;31365;48.858;8.530;2024-02-14T04:55:06;8.20;99.90
46336;DHT22;31365;48.858;8.530;2024-02-14T04:57:36;8.30;99.90
46336;DHT22;31365;48.858;8.530;2024-02-14T05:00:05;8.30;99.90
46336;DHT22;31365;48.858;8.530;2024-02-14T05:02:37;8.30;99.90
46336;DHT22;31365;48.858;8.530;2024-02-14T05:05:06;8.30;99.90
46336;DHT22;31365;48.858;8.530;2024-02-14T05:07:35;8.30;99.90
46336;DHT22;31365;48.858;8.530;2024-02-14T05:10:04;8.40;99.90
46336;DHT22;31365;48.858;8.530;2024-02-14T05:12:34;8.50;99.90
46336;DHT22;31365;48.858;8.530;2024-02-14T05:15:03;8.60;99.90
46336;DHT22;31365;48.858;8.530;2024-02-14T05:17:33;8.60;99.90
46336;DHT22;31365;48.858;8.530;2024-02-14T05:20:04;8.60;99.90
46336;DHT22;31365;48.858;8.530;2024-02-14T05:22:36;8.70;99.90
46336;DHT22;31365;48.858;8.530;2024-02-14T05:25:06;8.90;99.90
46336;DHT22;31365;48.858;8.530;2024-02-14T05:27:36;8.90;99.90
46336;DHT22;31365;48.858;8.530;2024-02-14T05:30:05;8.90;99.90
46336;DHT22;31365;48.858;8.530;2024-02-14T05:32:35;9.00;99.90
46336;DHT22;31365;48.858;8.530;2024-02-14T05:35:05;9.00;99.90
46336;DHT22;31365;48.858;8.530;2024-02-14T05:37:35;9.00;99.90
46336;DHT22;31365;48.858;8.530;2024-02-14T05:40:06;9.00;99.90
46336;DHT22;31365;48.858;8.530;2024-02-14T05:42:35;8.90;99.90
46336;DHT22;31365;48.858;8.530;2024-02-14T05:45:05;8.80;99.90
46336;DHT22;31365;48.858;8.530;2024-02-14T05:47:37;8.90;99.90
46336;DHT22;31365;48.858;8.530;2024-02-14T05:50:09;8.90;99.90
46336;DHT22;31365;48.858;8.530;2024-02-14T05:52:38;8.90;99.90
46336;DHT22;31365;48.858;8.530;2024-02-14T05:55:07;8.90;99.90
46336;DHT22;31365;48.858;8.530;2024-02-14T05:57:35;8.90;99.90
46336;DHT22;31365;48.858;8.530;2024-02-14T06:00:05;8.90;99.90
46336;DHT22;31365;48.858;8.530;2024-02-14T06:02:38;8.90;99.90
46336;DHT22;31365;48.858;8.530;2024-02-14T06:05:09;8.90;99.90
46336;DHT22;31365;48.858;8.530;2024-02-14T06:07:38;9.00;99.90
46336;DHT22;31365;48.858;8.530;2024-02-14T06:10:07;9.00;99.90
46336;DHT22;31365;48.858;8.530;2024-02-14T06:12:36;9.10;99.90
46336;DHT22;31365;48.858;8.530;2024-02-14T06:15:10;9.10;99.90
46336;DHT22;31365;48.858;8.530;2024-02-14T06:17:38;9.20;99.90
46336;DHT22;31365;48.858;8.530;2024-02-14T06:20:09;9.20;99.90
46336;DHT22;31365;48.858;8.530;2024-02-14T06:22:39;9.20;99.90
46336;DHT22;31365;48.858;8.530;2024-02-14T06:25:19;9.30;99.90
46336;DHT22;31365;48.858;8.530;2024-02-14T06:27:47;9.40;99.90
46336;DHT22;31365;48.858;8.530;2024-02-14T06:30:16;9.50;99.90
46336;DHT22;31365;48.858;8.530;2024-02-14T06:32:45;9.50;99.90
46336;DHT22;31365;48.858;8.530;2024-02-14T06:35:14;9.50;99.90
46336;DHT22;31365;48.858;8.530;2024-02-14T06:37:46;9.50;99.90
46336;DHT22;31365;48.858;8.530;2024-02-14T06:40:29;9.60;99.90
46336;DHT22;31365;48.858;8.530;2024-02-14T06:42:58;9.60;99.90
46336;DHT22;31365;48.858;8.530;2024-02-14T06:45:28;9.60;99.90
46336;DHT22;31365;48.858;8.530;2024-02-14T06:47:57;9.60;99.90
46336;DHT22;31365;48.858;8.530;2024-02-14T06:50:27;9.60;99.90
46336;DHT22;31365;48.858;8.530;2024-02-14T06:52:56;9.60;99.90
46336;DHT22;31365;48.858;8.530;2024-02-14T06:55:26;9.70;99.90
46336;DHT22;31365;48.858;8.530;2024-02-14T06:57:55;9.70;99.90
46336;DHT22;31365;48.858;8.530;2024-02-14T07:00:24;9.80;99.90
46336;DHT22;31365;48.858;8.530;2024-02-14T07:02:52;9.80;99.90
46336;DHT22;31365;48.858;8.530;2024-02-14T07:05:21;9.80;99.90
46336;DHT22;31365;48.858;8.530;2024-02-14T07:07:51;9.80;99.90
46336;DHT22;31365;48.858;8.530;2024-02-14T07:10:20;9.80;99.90
46336;DHT22;31365;48.858;8.530;2024-02-14T07:12:48;9.90;99.90
46336;DHT22;31365;48.858;8.530;2024-02-14T07:15:17;9.90;99.90
46336;DHT22;31365;48.858;8.530;2024-02-14T07:17:47;9.90;99.90
46336;DHT22;31365;48.858;8.530;2024-02-14T07:20:15;9.90;99.90
46336;DHT22;31365;48.858;8.530;2024-02-14T07:22:44;9.90;99.90
46336;DHT22;31365;48.858;8.530;2024-02-14T07:25:15;10.00;99.90
46336;DHT22;31365;48.858;8.530;2024-02-14T07:27:44;10.00;99.90
46336;DHT22;31365;48.858;8.530;2024-02-14T07:30:13;10.00;99.90
46336;DHT22;31365;48.858;8.530;2024-02-14T07:32:42;10.10;99.90
46336;DHT22;31365;48.858;8.530;2024-02-14T07:35:11;10.10;99.90
46336;DHT22;31365;48.858;8.530;2024-02-14T07:37:41;10.10;99.90
46336;DHT22;31365;48.858;8.530;2024-02-14T07:40:10;10.10;99.90
46336;DHT22;31365;48.858;8.530;2024-02-14T07:42:44;10.10;99.90
46336;DHT22;31365;48.858;8.530;2024-02-14T07:45:13;10.10;99.90
46336;DHT22;31365;48.858;8.530;2024-02-14T07:47:42;10.10;99.90
46336;DHT22;31365;48.858;8.530;2024-02-14T07:50:10;10.10;99.90
46336;DHT22;31365;48.858;8.530;2024-02-14T07:52:41;10.10;99.90
46336;DHT22;31365;48.858;8.530;2024-02-14T07:55:11;10.10;99.90
46336;DHT22;31365;48.858;8.530;2024-02-14T07:57:42;10.20;99.90
46336;DHT22;31365;48.858;8.530;2024-02-14T08:00:13;10.20;99.90
46336;DHT22;31365;48.858;8.530;2024-02-14T08:02:46;10.20;99.90
46336;DHT22;31365;48.858;8.530;2024-02-14T08:05:14;10.20;99.90
46336;DHT22;31365;48.858;8.530;2024-02-14T08:07:44;10.30;99.90
46336;DHT22;31365;48.858;8.530;2024-02-14T08:10:13;10.30;99.90
46336;DHT22;31365;48.858;8.530;2024-02-14T08:12:41;10.40;99.90
46336;DHT22;31365;48.858;8.530;2024-02-14T08:15:11;10.50;99.90
46336;DHT22;31365;48.858;8.530;2024-02-14T08:17:39;10.60;99.90
46336;DHT22;31365;48.858;8.530;2024-02-14T08:20:12;10.60;99.90
46336;DHT22;31365;48.858;8.530;2024-02-14T08:22:41;10.50;99.90
46336;DHT22;31365;48.858;8.530;2024-02-14T08:25:10;10.50;99.90
46336;DHT22;31365;48.858;8.530;2024-02-14T08:27:38;10.60;99.90
46336;DHT22;31365;48.858;8.530;2024-02-14T08:30:07;10.60;99.90
46336;DHT22;31365;48.858;8.530;2024-02-14T08:32:37;10.60;99.90
46336;DHT22;31365;48.858;8.530;2024-02-14T08:35:07;10.70;99.90
46336;DHT22;31365;48.858;8.530;2024-02-14T08:37:36;10.70;99.90
46336;DHT22;31365;48.858;8.530;2024-02-14T08:40:07;10.70;99.90
46336;DHT22;31365;48.858;8.530;2024-02-14T08:42:39;10.70;99.90
46336;DHT22;31365;48.858;8.530;2024-02-14T08:45:08;10.80;99.90
46336;DHT22;31365;48.858;8.530;2024-02-14T08:47:39;10.80;99.90
46336;DHT22;31365;48.858;8.530;2024-02-14T08:50:08;10.80;99.90
46336;DHT22;31365;48.858;8.530;2024-02-14T08:52:37;10.80;99.90
46336;DHT22;31365;48.858;8.530;2024-02-14T08:55:06;10.90;99.90
46336;DHT22;31365;48.858;8.530;2024-02-14T08:57:41;10.90;99.90
46336;DHT22;31365;48.858;8.530;2024-02-14T09:00:10;10.90;99.90
46336;DHT22;31365;48.858;8.530;2024-02-14T09:02:43;11.00;99.90
46336;DHT22;31365;48.858;8.530;2024-02-14T09:05:11;11.20;99.90
46336;DHT22;31365;48.858;8.530;2024-02-14T09:07:40;11.30;99.90
46336;DHT22;31365;48.858;8.530;2024-02-14T09:10:09;11.40;99.90
46336;DHT22;31365;48.858;8.530;2024-02-14T09:12:39;11.50;99.90
46336;DHT22;31365;48.858;8.530;2024-02-14T09:15:09;11.60;99.90
46336;DHT22;31365;48.858;8.530;2024-02-14T09:17:39;11.60;99.90
46336;DHT22;31365;48.858;8.530;2024-02-14T09:20:11;11.70;99.90
46336;DHT22;31365;48.858;8.530;2024-02-14T09:22:41;11.80;99.90
46336;DHT22;31365;48.858;8.530;2024-02-14T09:25:09;11.90;99.90
46336;DHT22;31365;48.858;8.530;2024-02-14T09:27:38;11.80;99.90
46336;DHT22;31365;48.858;8.530;2024-02-14T09:30:07;11.90;99.90
46336;DHT22;31365;48.858;8.530;2024-02-14T09:32:50;12.00;99.90
46336;DHT22;31365;48.858;8.530;2024-02-14T09:35:20;12.00;99.90
46336;DHT22;31365;48.858;8.530;2024-02-14T09:37:49;12.10;99.90
46336;DHT22;31365;48.858;8.530;2024-02-14T09:40:18;12.10;99.90
46336;DHT22;31365;48.858;8.530;2024-02-14T09:42:51;12.20;99.90
46336;DHT22;31365;48.858;8.530;2024-02-14T09:45:25;12.20;99.90
46336;DHT22;31365;48.858;8.530;2024-02-14T09:47:54;12.10;99.90
46336;DHT22;31365;48.858;8.530;2024-02-14T09:50:26;12.20;99.90
46336;DHT22;31365;48.858;8.530;2024-02-14T09:52:58;12.30;99.90
46336;DHT22;31365;48.858;8.530;2024-02-14T09:55:27;12.40;99.90
46336;DHT22;31365;48.858;8.530;2024-02-14T09:57:56;12.40;99.90
46336;DHT22;31365;48.858;8.530;2024-02-14T10:00:31;12.40;99.90
46336;DHT22;31365;48.858;8.530;2024-02-14T10:03:00;12.60;99.90
46336;DHT22;31365;48.858;8.530;2024-02-14T10:05:30;12.60;99.90
46336;DHT22;31365;48.858;8.530;2024-02-14T10:07:59;12.50;99.90
46336;DHT22;31365;48.858;8.530;2024-02-14T10:10:28;12.40;99.90
46336;DHT22;31365;48.858;8.530;2024-02-14T10:12:56;12.40;99.90
46336;DHT22;31365;48.858;8.530;2024-02-14T10:15:25;12.50;99.90
46336;DHT22;31365;48.858;8.530;2024-02-14T10:17:53;12.50;99.90
46336;DHT22;31365;48.858;8.530;2024-02-14T10:20:22;12.50;99.90
46336;DHT22;31365;48.858;8.530;2024-02-14T10:23:00;12.60;99.90
46336;DHT22;31365;48.858;8.530;2024-02-14T10:25:30;12.60;99.90
46336;DHT22;31365;48.858;8.530;2024-02-14T10:28:03;12.60;99.90
46336;DHT22;31365;48.858;8.530;2024-02-14T10:30:36;12.70;99.90
46336;DHT22;31365;48.858;8.530;2024-02-14T10:33:05;12.70;99.90
46336;DHT22;31365;48.858;8.530;2024-02-14T10:35:51;12.60;99.90
46336;DHT22;31365;48.858;8.530;2024-02-14T10:38:30;12.70;99.90
46336;DHT22;31365;48.858;8.530;2024-02-14T10:41:01;12.80;99.90
46336;DHT22;31365;48.858;8.530;2024-02-14T10:43:33;12.70;99.90
46336;DHT22;31365;48.858;8.530;2024-02-14T10:46:09;12.70;99.90
46336;DHT22;31365;48.858;8.530;2024-02-14T10:48:41;12.70;99.90
46336;DHT22;31365;48.858;8.530;2024-02-14T10:51:11;12.60;99.90
46336;DHT22;31365;48.858;8.530;2024-02-14T10:53:45;12.60;99.90
46336;DHT22;31365;48.858;8.530;2024-02-14T10:56:18;12.50;99.90
46336;DHT22;31365;48.858;8.530;2024-02-14T10:58:47;12.50;99.90
46336;DHT22;31365;48.858;8.530;2024-02-14T11:01:17;12.60;99.90
46336;DHT22;31365;48.858;8.530;2024-02-14T11:03:47;12.70;99.90
46336;DHT22;31365;48.858;8.530;2024-02-14T11:06:17;12.70;99.90
46336;DHT22;31365;48.858;8.530;2024-02-14T11:08:57;12.80;99.90
46336;DHT22;31365;48.858;8.530;2024-02-14T11:11:28;12.90;99.90
46336;DHT22;31365;48.858;8.530;2024-02-14T11:13:58;13.00;99.90
46336;DHT22;31365;48.858;8.530;2024-02-14T11:16:27;13.10;99.90
46336;DHT22;31365;48.858;8.530;2024-02-14T11:19:06;13.10;99.90
46336;DHT22;31365;48.858;8.530;2024-02-14T11:21:37;13.10;99.90
46336;DHT22;31365;48.858;8.530;2024-02-14T11:24:12;13.20;99.90
46336;DHT22;31365;48.858;8.530;2024-02-14T11:26:46;13.30;99.90
46336;DHT22;31365;48.858;8.530;2024-02-14T11:29:16;13.60;99.90
46336;DHT22;31365;48.858;8.530;2024-02-14T11:31:58;13.80;99.90
46336;DHT22;31365;48.858;8.530;2024-02-14T11:34:27;13.90;99.90
46336;DHT22;31365;48.858;8.530;2024-02-14T11:37:04;14.00;99.90
46336;DHT22;31365;48.858;8.530;2024-02-14T11:39:35;14.10;99.90
46336;DHT22;31365;48.858;8.530;2024-02-14T11:42:05;14.20;99.90
46336;DHT22;31365;48.858;8.530;2024-02-14T11:44:36;14.40;99.90
46336;DHT22;31365;48.858;8.530;2024-02-14T11:47:05;15.20;99.90
46336;DHT22;31365;48.858;8.530;2024-02-14T11:49:33;16.10;99.90
46336;DHT22;31365;48.858;8.530;2024-02-14T11:52:03;16.70;99.90
46336;DHT22;31365;48.858;8.530;2024-02-14T11:54:32;17.40;99.90
46336;DHT22;31365;48.858;8.530;2024-02-14T11:57:02;17.60;99.90
46336;DHT22;31365;48.858;8.530;2024-02-14T11:59:31;17.60;99.90
46336;DHT22;31365;48.858;8.530;2024-02-14T12:01:59;17.40;99.90
46336;DHT22;31365;48.858;8.530;2024-02-14T12:04:30;17.10;99.90
46336;DHT22;31365;48.858;8.530;2024-02-14T12:07:00;17.10;99.90
46336;DHT22;31365;48.858;8.530;2024-02-14T12:09:30;17.80;99.90
46336;DHT22;31365;48.858;8.530;2024-02-14T12:11:59;17.90;99.90
46336;DHT22;31365;48.858;8.530;2024-02-14T12:14:29;18.00;99.90
46336;DHT22;31365;48.858;8.530;2024-02-14T12:17:00;18.80;99.90
46336;DHT22;31365;48.858;8.530;2024-02-14T12:19:30;19.40;99.90
46336;DHT22;31365;48.858;8.530;2024-02-14T12:22:00;18.70;99.90
46336;DHT22;31365;48.858;8.530;2024-02-14T12:24:29;18.00;99.90
46336;DHT22;31365;48.858;8.530;2024-02-14T12:26:58;17.90;99.90
46336;DHT22;31365;48.858;8.530;2024-02-14T12:29:26;17.50;99.90
46336;DHT22;31365;48.858;8.530;2024-02-14T12:32:04;17.40;99.90
46336;DHT22;31365;48.858;8.530;2024-02-14T12:34:33;17.40;99.90
46336;DHT22;31365;48.858;8.530;2024-02-14T12:37:03;17.10;99.90
46336;DHT22;31365;48.858;8.530;2024-02-14T12:39:32;16.90;99.90
46336;DHT22;31365;48.858;8.530;2024-02-14T12:42:00;16.80;99.90
46336;DHT22;31365;48.858;8.530;2024-02-14T12:44:29;16.70;99.90
46336;DHT22;31365;48.858;8.530;2024-02-14T12:46:58;16.60;99.90
46336;DHT22;31365;48.858;8.530;2024-02-14T12:49:28;16.40;99.90
46336;DHT22;31365;48.858;8.530;2024-02-14T12:51:58;16.50;99.90
46336;DHT22;31365;48.858;8.530;2024-02-14T12:54:28;16.60;99.90
46336;DHT22;31365;48.858;8.530;2024-02-14T12:56:57;16.60;99.90
46336;DHT22;31365;48.858;8.530;2024-02-14T12:59:26;16.50;99.90
46336;DHT22;31365;48.858;8.530;2024-02-14T13:01:54;17.00;99.90
46336;DHT22;31365;48.858;8.530;2024-02-14T13:04:22;17.10;99.90
46336;DHT22;31365;48.858;8.530;2024-02-14T13:06:52;17.00;99.90
46336;DHT22;31365;48.858;8.530;2024-02-14T13:09:21;16.90;99.90
46336;DHT22;31365;48.858;8.530;2024-02-14T13:11:50;16.80;99.90
46336;DHT22;31365;48.858;8.530;2024-02-14T13:14:19;16.60;99.90
46336;DHT22;31365;48.858;8.530;2024-02-14T13:16:48;16.60;99.90
46336;DHT22;31365;48.858;8.530;2024-02-14T13:19:16;16.60;99.90
46336;DHT22;31365;48.858;8.530;2024-02-14T13:21:46;16.50;99.90
46336;DHT22;31365;48.858;8.530;2024-02-14T13:24:17;16.50;99.90
46336;DHT22;31365;48.858;8.530;2024-02-14T13:26:46;16.40;99.90
46336;DHT22;31365;48.858;8.530;2024-02-14T13:29:15;16.30;99.90
46336;DHT22;31365;48.858;8.530;2024-02-14T13:31:44;16.30;99.90
46336;DHT22;31365;48.858;8.530;2024-02-14T13:34:13;16.20;99.90
46336;DHT22;31365;48.858;8.530;2024-02-14T13:36:42;16.30;99.90
46336;DHT22;31365;48.858;8.530;2024-02-14T13:39:13;16.20;99.90
46336;DHT22;31365;48.858;8.530;2024-02-14T13:41:44;16.20;99.90
46336;DHT22;31365;48.858;8.530;2024-02-14T13:44:12;16.00;99.90
46336;DHT22;31365;48.858;8.530;2024-02-14T13:46:45;15.90;99.90
46336;DHT22;31365;48.858;8.530;2024-02-14T13:49:14;15.80;99.90
46336;DHT22;31365;48.858;8.530;2024-02-14T13:51:47;16.00;99.90
46336;DHT22;31365;48.858;8.530;2024-02-14T13:54:17;16.30;99.90
46336;DHT22;31365;48.858;8.530;2024-02-14T13:56:47;16.30;99.90
46336;DHT22;31365;48.858;8.530;2024-02-14T13:59:16;16.10;99.90
46336;DHT22;31365;48.858;8.530;2024-02-14T14:01:45;15.90;99.90
46336;DHT22;31365;48.858;8.530;2024-02-14T14:04:15;15.90;99.90
46336;DHT22;31365;48.858;8.530;2024-02-14T14:06:44;15.80;99.90
46336;DHT22;31365;48.858;8.530;2024-02-14T14:09:16;15.70;99.90
46336;DHT22;31365;48.858;8.530;2024-02-14T14:11:46;15.50;99.90
46336;DHT22;31365;48.858;8.530;2024-02-14T14:14:17;15.50;99.90
46336;DHT22;31365;48.858;8.530;2024-02-14T14:16:46;15.30;99.90
46336;DHT22;31365;48.858;8.530;2024-02-14T14:19:15;15.10;99.90
46336;DHT22;31365;48.858;8.530;2024-02-14T14:21:43;15.10;99.90
46336;DHT22;31365;48.858;8.530;2024-02-14T14:24:13;15.20;99.90
46336;DHT22;31365;48.858;8.530;2024-02-14T14:26:42;15.30;99.90
46336;DHT22;31365;48.858;8.530;2024-02-14T14:29:13;15.20;99.90
46336;DHT22;31365;48.858;8.530;2024-02-14T14:31:42;15.10;99.90
46336;DHT22;31365;48.858;8.530;2024-02-14T14:34:10;15.00;99.90
46336;DHT22;31365;48.858;8.530;2024-02-14T14:36:39;14.90;99.90
46336;DHT22;31365;48.858;8.530;2024-02-14T14:39:09;14.90;99.90
46336;DHT22;31365;48.858;8.530;2024-02-14T14:41:38;14.90;99.90
46336;DHT22;31365;48.858;8.530;2024-02-14T14:44:07;14.90;99.90
46336;DHT22;31365;48.858;8.530;2024-02-14T14:46:37;14.80;99.90
46336;DHT22;31365;48.858;8.530;2024-02-14T14:49:09;14.60;99.90
46336;DHT22;31365;48.858;8.530;2024-02-14T14:51:37;14.60;99.90
46336;DHT22;31365;48.858;8.530;2024-02-14T14:54:06;14.50;99.90
46336;DHT22;31365;48.858;8.530;2024-02-14T14:56:35;14.50;99.90
46336;DHT22;31365;48.858;8.530;2024-02-14T14:59:04;14.60;99.90
46336;DHT22;31365;48.858;8.530;2024-02-14T15:01:34;14.60;99.90
46336;DHT22;31365;48.858;8.530;2024-02-14T15:04:05;14.60;99.90
46336;DHT22;31365;48.858;8.530;2024-02-14T15:06:34;14.50;99.90
46336;DHT22;31365;48.858;8.530;2024-02-14T15:09:02;14.40;99.90
46336;DHT22;31365;48.858;8.530;2024-02-14T15:11:33;14.40;99.90
46336;DHT22;31365;48.858;8.530;2024-02-14T15:14:02;14.30;99.90
46336;DHT22;31365;48.858;8.530;2024-02-14T15:16:34;14.10;99.90
46336;DHT22;31365;48.858;8.530;2024-02-14T15:19:04;14.00;99.90
46336;DHT22;31365;48.858;8.530;2024-02-14T15:21:34;13.90;99.90
46336;DHT22;31365;48.858;8.530;2024-02-14T15:24:02;13.90;99.90
46336;DHT22;31365;48.858;8.530;2024-02-14T15:26:31;13.90;99.90
46336;DHT22;31365;48.858;8.530;2024-02-14T15:29:16;13.90;99.90
46336;DHT22;31365;48.858;8.530;2024-02-14T15:32:03;13.80;99.90
46336;DHT22;31365;48.858;8.530;2024-02-14T15:34:52;13.80;99.90
46336;DHT22;31365;48.858;8.530;2024-02-14T15:37:21;13.80;99.90
46336;DHT22;31365;48.858;8.530;2024-02-14T15:39:50;13.80;99.90
46336;DHT22;31365;48.858;8.530;2024-02-14T15:42:19;13.70;99.90
46336;DHT22;31365;48.858;8.530;2024-02-14T15:44:48;13.70;99.90
46336;DHT22;31365;48.858;8.530;2024-02-14T15:47:16;13.60;99.90
46336;DHT22;31365;48.858;8.530;2024-02-14T15:49:44;13.60;99.90
46336;DHT22;31365;48.858;8.530;2024-02-14T15:52:14;13.60;99.90
46336;DHT22;31365;48.858;8.530;2024-02-14T15:54:44;13.50;99.90